Time;durP1;ratioP1;P1;durP2;ratioP2;P2;SDS_P1;SDS_P2;PMS_P1;PMS_P2;Temp;Humidity;BMP_temperature;BMP_pressure;BME280_temperature;BME280_humidity;BME280_pressure;Samples;Min_cycle;Max_cycle;Signal;HPM_P1;HPM_P2
2021/06/18 00:02:14;;;;;;;5.80;5.37;;;24.30;1.00;;;;;;5083911;28;20437;-59
2021/06/18 00:04:40;;;;;;;5.60;5.10;;;24.30;1.00;;;;;;5078613;28;20258;-57
2021/06/18 00:07:06;;;;;;;5.87;5.47;;;24.20;1.00;;;;;;5079468;28;20187;-59
2021/06/18 00:09:31;;;;;;;7.10;5.63;;;24.20;1.00;;;;;;5078609;28;20919;-58
2021/06/18 00:11:58;;;;;;;6.00;5.50;;;24.30;1.00;;;;;;5079160;28;20180;-59
2021/06/18 00:14:23;;;;;;;5.80;5.20;;;24.30;1.00;;;;;;5081500;28;20292;-57
2021/06/18 00:16:49;;;;;;;5.70;5.30;;;24.30;1.00;;;;;;5076671;28;20468;-57
2021/06/18 00:19:15;;;;;;;6.23;5.63;;;24.20;1.00;;;;;;5075434;28;20180;-60
2021/06/18 00:21:41;;;;;;;8.80;5.00;;;24.20;1.00;;;;;;5083621;28;20918;-58
2021/06/18 00:24:07;;;;;;;7.73;5.70;;;24.20;1.00;;;;;;5082111;28;20437;-58
2021/06/18 00:26:33;;;;;;;6.27;5.10;;;24.10;1.00;;;;;;5074408;28;20183;-58
2021/06/18 00:28:58;;;;;;;6.23;5.67;;;24.10;1.00;;;;;;5088379;28;20549;-59
2021/06/18 00:31:24;;;;;;;6.17;5.67;;;24.10;1.00;;;;;;5085071;28;20178;-59
2021/06/18 00:33:50;;;;;;;5.93;5.43;;;24.00;1.00;;;;;;5077968;28;20187;-59
2021/06/18 00:36:15;;;;;;;5.53;5.03;;;23.90;1.00;;;;;;5079105;28;20206;-59
2021/06/18 00:38:41;;;;;;;6.47;5.80;;;23.90;1.00;;;;;;5075983;28;20172;-60
2021/06/18 00:41:06;;;;;;;5.80;5.30;;;23.90;1.00;;;;;;5077832;28;20190;-58
2021/06/18 00:43:32;;;;;;;8.20;5.70;;;23.90;1.00;;;;;;5079541;28;20265;-60
2021/06/18 00:45:58;;;;;;;6.63;6.00;;;23.90;1.00;;;;;;5085814;28;20275;-58
2021/06/18 00:48:25;;;;;;;5.80;5.40;;;23.70;1.00;;;;;;5071776;28;20227;-58
2021/06/18 00:50:51;;;;;;;6.43;5.60;;;23.80;1.00;;;;;;5077565;28;20548;-59
2021/06/18 00:53:17;;;;;;;5.80;5.30;;;23.80;1.00;;;;;;5076079;28;20434;-60
2021/06/18 00:55:47;;;;;;;9.23;5.30;;;23.70;1.00;;;;;;5072332;28;20176;-60
2021/06/18 00:58:13;;;;;;;8.63;5.80;;;23.70;1.00;;;;;;5079515;28;20460;-58
2021/06/18 01:00:39;;;;;;;5.40;4.90;;;23.70;1.00;;;;;;5081834;28;20440;-59
2021/06/18 01:03:05;;;;;;;6.80;6.20;;;23.70;1.00;;;;;;5083548;28;20578;-59
2021/06/18 01:05:30;;;;;;;7.40;5.50;;;23.60;1.00;;;;;;5085884;28;20428;-60
2021/06/18 01:08:07;;;;;;;6.37;5.80;;;23.70;1.00;;;;;;5077772;28;20194;-60
2021/06/18 01:10:33;;;;;;;6.20;5.80;;;23.70;1.00;;;;;;5088735;28;20190;-59
2021/06/18 01:13:24;;;;;;;9.17;6.20;;;23.70;1.00;;;;;;5084458;28;20447;-58
2021/06/18 01:16:00;;;;;;;6.27;5.70;;;23.60;1.00;;;;;;5082574;28;20219;-60
2021/06/18 01:18:56;;;;;;;6.80;6.20;;;23.60;1.00;;;;;;5078844;28;20428;-59
2021/06/18 01:21:41;;;;;;;6.00;5.50;;;23.60;1.00;;;;;;5083528;28;20523;-60
2021/06/18 01:24:31;;;;;;;6.07;5.57;;;23.60;1.00;;;;;;5086905;28;20425;-59
2021/06/18 01:27:00;;;;;;;6.20;5.57;;;23.60;1.00;;;;;;5085959;28;20436;-58
2021/06/18 01:29:35;;;;;;;6.33;5.83;;;23.50;1.00;;;;;;5076614;28;20865;-59
2021/06/18 01:32:02;;;;;;;6.70;6.20;;;23.50;1.00;;;;;;5087119;28;20805;-58
2021/06/18 01:34:31;;;;;;;6.37;5.77;;;23.50;1.00;;;;;;5083415;28;20442;-59
2021/06/18 01:37:03;;;;;;;6.20;5.67;;;23.30;1.00;;;;;;5081275;28;20461;-58
2021/06/18 01:39:30;;;;;;;6.83;6.20;;;23.30;1.00;;;;;;5082005;28;20434;-59
2021/06/18 01:41:57;;;;;;;6.30;5.60;;;23.30;1.00;;;;;;5080469;28;20426;-61
2021/06/18 01:44:23;;;;;;;7.73;7.03;;;23.30;1.00;;;;;;5081729;28;20433;-58
2021/06/18 01:46:51;;;;;;;6.47;5.90;;;23.30;1.00;;;;;;5087241;28;20429;-60
2021/06/18 01:49:19;;;;;;;7.00;6.40;;;23.20;1.00;;;;;;5086038;28;20767;-59
2021/06/18 01:51:48;;;;;;;6.40;5.90;;;23.10;1.00;;;;;;5086700;28;20973;-58
2021/06/18 01:54:15;;;;;;;5.80;5.37;;;23.10;1.00;;;;;;5079859;28;20987;-59
2021/06/18 01:56:41;;;;;;;8.53;5.30;;;23.10;1.00;;;;;;5078123;28;20461;-58
2021/06/18 01:59:08;;;;;;;6.17;5.67;;;23.00;1.00;;;;;;5075439;28;20422;-57
2021/06/18 02:01:44;;;;;;;5.97;5.47;;;23.00;1.00;;;;;;5083732;28;20501;-58
2021/06/18 02:04:12;;;;;;;6.97;6.30;;;23.10;1.00;;;;;;5082044;28;20532;-59
2021/06/18 02:06:40;;;;;;;6.60;6.10;;;23.00;1.00;;;;;;5085439;28;20519;-59
2021/06/18 02:09:07;;;;;;;6.43;5.83;;;23.00;1.00;;;;;;5080283;28;20440;-59
2021/06/18 02:11:36;;;;;;;6.90;6.30;;;22.90;1.00;;;;;;5089110;28;20439;-59
2021/06/18 02:14:07;;;;;;;7.40;6.70;;;22.90;1.00;;;;;;5078295;28;20491;-59
2021/06/18 02:16:36;;;;;;;7.50;6.80;;;22.90;1.00;;;;;;5088110;28;20473;-59
2021/06/18 02:19:02;;;;;;;6.90;6.30;;;22.90;1.00;;;;;;5082640;28;20787;-60
2021/06/18 02:21:28;;;;;;;5.70;5.20;;;22.80;1.00;;;;;;5075373;28;20417;-60
2021/06/18 02:23:57;;;;;;;6.53;5.93;;;22.90;1.00;;;;;;5082180;28;20444;-60
2021/06/18 02:26:25;;;;;;;7.00;6.50;;;23.00;1.00;;;;;;5083913;28;20436;-59
2021/06/18 02:28:53;;;;;;;6.27;5.67;;;22.90;1.00;;;;;;5083732;28;20461;-59
2021/06/18 02:31:22;;;;;;;6.63;6.03;;;23.00;1.00;;;;;;5079025;28;20533;-60
2021/06/18 02:33:49;;;;;;;6.60;5.80;;;23.00;1.00;;;;;;5082059;28;20470;-58
2021/06/18 02:36:15;;;;;;;5.97;5.47;;;22.90;1.00;;;;;;5078391;28;20473;-59
2021/06/18 02:38:41;;;;;;;6.40;5.90;;;22.80;1.00;;;;;;5081954;28;20464;-58
2021/06/18 02:41:07;;;;;;;6.60;6.00;;;22.70;1.00;;;;;;5085307;28;20590;-59
2021/06/18 02:43:32;;;;;;;6.17;5.67;;;22.70;1.00;;;;;;5083106;28;20608;-58
2021/06/18 02:45:58;;;;;;;6.83;6.23;;;22.70;1.00;;;;;;5079604;28;20654;-60
2021/06/18 02:48:31;;;;;;;5.80;5.30;;;22.70;1.00;;;;;;5080372;28;20191;-59
2021/06/18 02:51:28;;;;;;;7.00;6.30;;;22.70;1.00;;;;;;5073600;28;20195;-58
2021/06/18 02:54:10;;;;;;;6.30;5.70;;;22.90;1.00;;;;;;5079030;28;20453;-58
2021/06/18 02:56:47;;;;;;;6.43;5.77;;;22.80;1.00;;;;;;5087540;28;20484;-59
2021/06/18 02:59:24;;;;;;;6.93;5.40;;;22.80;1.00;;;;;;5081990;28;20833;-58
2021/06/18 03:01:53;;;;;;;7.73;6.17;;;22.80;1.00;;;;;;5080448;28;20428;-60
2021/06/18 03:04:22;;;;;;;6.07;5.47;;;22.80;1.00;;;;;;5080285;28;20875;-61
2021/06/18 03:06:50;;;;;;;6.40;5.90;;;22.80;1.00;;;;;;5079923;28;20533;-58
2021/06/18 03:09:21;;;;;;;6.03;5.53;;;22.80;1.00;;;;;;5084350;28;20437;-58
2021/06/18 03:11:48;;;;;;;6.40;5.90;;;22.80;1.00;;;;;;5077074;28;20520;-58
2021/06/18 03:14:17;;;;;;;6.40;5.90;;;22.90;1.00;;;;;;5076443;28;20535;-60
2021/06/18 03:16:45;;;;;;;6.73;6.03;;;22.90;1.00;;;;;;5088976;28;20499;-59
2021/06/18 03:19:13;;;;;;;7.03;6.20;;;22.90;1.00;;;;;;5082494;28;20490;-59
2021/06/18 03:21:40;;;;;;;6.90;6.00;;;22.80;1.00;;;;;;5070189;28;20930;-60
2021/06/18 03:24:07;;;;;;;6.77;6.03;;;22.90;1.00;;;;;;5068798;28;20425;-58
2021/06/18 03:26:33;;;;;;;6.93;6.23;;;22.90;1.00;;;;;;5071089;28;20518;-59
2021/06/18 03:28:59;;;;;;;6.93;6.20;;;23.00;1.00;;;;;;5083186;28;20543;-60
2021/06/18 03:31:26;;;;;;;7.00;6.20;;;25.00;1.00;;;;;;5088807;28;20194;-61
2021/06/18 03:33:52;;;;;;;8.10;5.90;;;23.30;1.00;;;;;;5081931;28;20787;-58
2021/06/18 03:36:24;;;;;;;6.10;5.50;;;23.50;1.00;;;;;;5085471;28;20457;-60
2021/06/18 03:38:50;;;;;;;6.57;6.07;;;23.80;1.00;;;;;;5082623;28;20524;-58
2021/06/18 03:41:18;;;;;;;6.13;5.40;;;24.20;1.00;;;;;;5081533;28;20866;-60
2021/06/18 03:43:44;;;;;;;6.80;6.30;;;24.30;1.00;;;;;;5083870;28;20957;-58
2021/06/18 03:46:10;;;;;;;14.77;13.10;;;24.60;1.00;;;;;;5078149;28;20430;-59
2021/06/18 03:48:37;;;;;;;7.40;6.80;;;24.80;1.00;;;;;;5078643;28;20987;-59
2021/06/18 03:51:06;;;;;;;7.40;6.63;;;27.40;1.00;;;;;;5078161;28;20437;-59
2021/06/18 03:53:33;;;;;;;6.00;5.40;;;24.70;1.00;;;;;;5079384;28;20944;-58
2021/06/18 03:55:58;;;;;;;6.60;6.00;;;24.70;1.00;;;;;;5077219;28;20519;-58
2021/06/18 03:58:26;;;;;;;6.20;5.70;;;24.40;1.00;;;;;;5079529;28;20511;-61
2021/06/18 04:00:54;;;;;;;6.73;6.23;;;24.20;1.00;;;;;;5078510;28;20186;-59
2021/06/18 04:03:20;;;;;;;6.63;6.13;;;24.00;1.00;;;;;;5076573;28;20786;-59
2021/06/18 04:05:48;;;;;;;6.17;5.77;;;23.90;1.00;;;;;;5082118;28;20437;-59
2021/06/18 04:08:15;;;;;;;6.83;6.17;;;23.80;1.00;;;;;;5074340;28;20509;-59
2021/06/18 04:10:43;;;;;;;7.30;6.10;;;23.80;1.00;;;;;;5081937;28;20456;-60
2021/06/18 04:13:09;;;;;;;7.40;6.70;;;23.70;1.00;;;;;;5080800;28;20475;-58
2021/06/18 04:15:35;;;;;;;7.50;6.80;;;23.60;1.00;;;;;;5076461;28;20823;-59
2021/06/18 04:18:01;;;;;;;7.33;6.70;;;23.60;1.00;;;;;;5082297;28;20441;-58
2021/06/18 04:20:29;;;;;;;9.17;6.70;;;23.50;1.00;;;;;;5081466;28;20428;-57
2021/06/18 04:22:54;;;;;;;6.93;6.30;;;23.60;1.00;;;;;;5086247;28;20443;-59
2021/06/18 04:25:21;;;;;;;7.43;6.57;;;23.60;1.00;;;;;;5090692;28;20425;-58
2021/06/18 04:27:46;;;;;;;6.73;6.07;;;23.70;1.00;;;;;;5073733;28;20207;-59
2021/06/18 04:30:14;;;;;;;6.80;6.23;;;23.70;1.00;;;;;;5079364;28;20527;-60
2021/06/18 04:32:40;;;;;;;7.43;6.80;;;23.70;1.00;;;;;;5078242;28;20183;-59
2021/06/18 04:35:08;;;;;;;6.97;6.27;;;23.70;1.00;;;;;;5086367;28;20955;-60
2021/06/18 04:37:35;;;;;;;8.60;7.10;;;23.80;1.00;;;;;;5087740;28;20551;-58
2021/06/18 04:40:01;;;;;;;8.30;6.13;;;23.80;1.00;;;;;;5073857;28;20542;-59
2021/06/18 04:42:26;;;;;;;6.20;5.70;;;23.90;1.00;;;;;;5089465;28;20436;-58
2021/06/18 04:44:52;;;;;;;6.40;5.80;;;23.90;1.00;;;;;;5090257;28;20476;-58
2021/06/18 04:47:19;;;;;;;7.93;6.20;;;23.90;1.00;;;;;;5077748;28;20179;-60
2021/06/18 04:49:47;;;;;;;6.90;6.30;;;24.00;1.00;;;;;;5086947;28;20242;-60
2021/06/18 04:52:13;;;;;;;8.53;6.00;;;24.10;1.00;;;;;;5088430;28;20515;-59
2021/06/18 04:54:39;;;;;;;8.10;7.40;;;24.10;1.00;;;;;;5093164;28;20531;-59
2021/06/18 04:57:04;;;;;;;6.50;5.90;;;24.10;1.00;;;;;;5085227;28;20206;-58
2021/06/18 04:59:33;;;;;;;6.33;5.83;;;24.30;1.00;;;;;;5090616;28;20659;-58
2021/06/18 05:01:58;;;;;;;7.60;6.63;;;24.40;1.00;;;;;;5080598;28;20170;-59
2021/06/18 05:04:24;;;;;;;6.63;6.00;;;24.40;1.00;;;;;;5079831;28;20943;-60
2021/06/18 05:06:49;;;;;;;6.90;6.27;;;24.60;1.00;;;;;;5085412;28;20182;-59
2021/06/18 05:09:15;;;;;;;6.60;5.97;;;24.60;1.00;;;;;;5078917;28;20270;-59
2021/06/18 05:11:40;;;;;;;5.83;5.33;;;24.70;1.00;;;;;;5081172;28;20187;-59
2021/06/18 05:14:06;;;;;;;12.13;6.53;;;24.90;1.00;;;;;;5087744;28;20185;-59
2021/06/18 05:16:31;;;;;;;22.43;8.33;;;25.00;1.00;;;;;;5080711;28;20703;-59
2021/06/18 05:18:57;;;;;;;13.10;6.47;;;25.10;1.00;;;;;;5080765;28;20198;-58
2021/06/18 05:21:22;;;;;;;29.40;7.40;;;25.20;1.00;;;;;;5083450;28;20294;-58
2021/06/18 05:23:48;;;;;;;7.73;5.63;;;25.30;1.00;;;;;;5075260;28;20436;-60
2021/06/18 05:26:13;;;;;;;10.37;6.47;;;25.40;1.00;;;;;;5078268;28;20190;-59
2021/06/18 05:28:39;;;;;;;7.10;6.23;;;25.50;1.00;;;;;;5084214;28;20280;-59
2021/06/18 05:31:04;;;;;;;7.07;5.67;;;25.60;1.00;;;;;;5087987;28;20187;-59
2021/06/18 05:33:30;;;;;;;6.40;5.80;;;25.60;1.00;;;;;;5084040;28;20187;-66
2021/06/18 05:35:56;;;;;;;6.20;5.77;;;25.70;1.00;;;;;;5088849;28;20604;-58
2021/06/18 05:38:21;;;;;;;10.60;6.33;;;25.80;1.00;;;;;;5080745;28;20190;-58
2021/06/18 05:40:47;;;;;;;7.77;6.17;;;25.80;1.00;;;;;;5089346;28;20193;-61
2021/06/18 05:43:12;;;;;;;7.10;5.53;;;25.90;1.00;;;;;;5081375;28;20184;-59
2021/06/18 05:45:39;;;;;;;6.87;6.23;;;26.10;1.00;;;;;;5085687;28;20187;-59
2021/06/18 05:48:05;;;;;;;5.23;4.80;;;26.20;1.00;;;;;;5083864;28;20186;-59
2021/06/18 05:50:32;;;;;;;6.40;5.90;;;26.30;1.00;;;;;;5081840;28;20516;-60
2021/06/18 05:52:58;;;;;;;6.90;6.17;;;26.40;1.00;;;;;;5090651;28;20857;-58
2021/06/18 05:55:24;;;;;;;5.53;5.13;;;26.50;1.00;;;;;;5090127;28;20440;-59
2021/06/18 05:57:50;;;;;;;6.80;6.10;;;26.50;1.00;;;;;;5085774;28;20491;-61
2021/06/18 06:00:16;;;;;;;6.73;5.60;;;26.60;1.00;;;;;;5076275;28;20811;-60
2021/06/18 06:02:42;;;;;;;6.63;5.93;;;26.60;1.00;;;;;;5091203;28;20445;-60
2021/06/18 06:05:09;;;;;;;7.00;5.60;;;26.70;1.00;;;;;;5078211;28;20480;-59
2021/06/18 06:07:34;;;;;;;6.43;5.47;;;26.70;1.00;;;;;;5076538;28;20617;-60
2021/06/18 06:10:00;;;;;;;8.93;5.73;;;26.70;1.00;;;;;;5084819;28;20464;-60
2021/06/18 06:12:25;;;;;;;8.50;6.47;;;26.80;1.00;;;;;;5084578;28;20202;-60
2021/06/18 06:14:51;;;;;;;5.97;5.43;;;26.80;1.00;;;;;;5084354;28;20194;-60
2021/06/18 06:17:17;;;;;;;6.97;5.80;;;26.90;1.00;;;;;;5083827;28;20257;-59
2021/06/18 06:19:42;;;;;;;7.50;5.13;;;27.10;1.00;;;;;;5073807;28;20207;-60
2021/06/18 06:22:08;;;;;;;6.20;5.70;;;27.10;1.00;;;;;;5079778;28;20187;-60
2021/06/18 06:24:33;;;;;;;6.23;5.73;;;27.20;1.00;;;;;;5077648;28;20215;-58
2021/06/18 06:26:59;;;;;;;6.20;5.47;;;27.20;1.00;;;;;;5083339;28;20214;-60
2021/06/18 06:29:25;;;;;;;8.40;6.10;;;27.20;1.00;;;;;;5079232;28;20680;-58
2021/06/18 06:31:50;;;;;;;6.50;6.00;;;27.30;1.00;;;;;;5085206;28;20532;-58
2021/06/18 06:34:16;;;;;;;6.13;5.60;;;27.50;1.00;;;;;;5075841;28;20625;-59
2021/06/18 06:36:42;;;;;;;6.83;5.30;;;27.50;1.00;;;;;;5083765;28;20277;-59
2021/06/18 06:39:07;;;;;;;6.10;5.60;;;27.50;1.00;;;;;;5086729;28;20186;-60
2021/06/18 06:41:33;;;;;;;5.60;5.20;;;27.60;1.00;;;;;;5085767;28;20579;-59
2021/06/18 06:43:59;;;;;;;5.57;5.00;;;27.70;1.00;;;;;;5089374;28;20265;-58
2021/06/18 06:46:25;;;;;;;5.47;5.07;;;27.70;1.00;;;;;;5082349;28;20501;-59
2021/06/18 06:48:50;;;;;;;6.80;6.10;;;27.90;1.00;;;;;;5085629;28;20179;-60
2021/06/18 06:51:16;;;;;;;6.47;5.37;;;28.00;1.00;;;;;;5077511;28;20179;-59
2021/06/18 06:53:43;;;;;;;5.73;4.90;;;28.10;1.00;;;;;;5077046;28;20459;-58
2021/06/18 06:56:09;;;;;;;6.87;5.43;;;28.30;1.00;;;;;;5080097;28;21749;-60
2021/06/18 06:58:35;;;;;;;7.63;5.60;;;28.40;1.00;;;;;;5077301;28;20438;-59
2021/06/18 07:01:00;;;;;;;6.03;5.43;;;28.60;1.00;;;;;;5082199;28;20441;-60
2021/06/18 07:03:26;;;;;;;5.80;5.30;;;28.60;1.00;;;;;;5082524;28;20376;-58
2021/06/18 07:05:52;;;;;;;5.67;5.27;;;28.80;1.00;;;;;;5081591;28;20183;-60
2021/06/18 07:08:19;;;;;;;6.97;4.97;;;28.80;1.00;;;;;;5092278;28;20529;-58
2021/06/18 07:10:46;;;;;;;5.80;5.20;;;28.80;1.00;;;;;;5080283;28;20229;-61
2021/06/18 07:13:11;;;;;;;6.10;5.50;;;28.80;1.00;;;;;;5081410;28;20478;-59
2021/06/18 07:15:37;;;;;;;8.53;4.97;;;28.80;1.00;;;;;;5070286;28;20939;-62
2021/06/18 07:18:03;;;;;;;5.93;5.50;;;28.80;1.00;;;;;;5074905;28;20229;-60
2021/06/18 07:20:28;;;;;;;5.47;4.97;;;28.90;1.00;;;;;;5080510;28;20182;-61
2021/06/18 07:22:54;;;;;;;7.60;5.63;;;28.90;1.00;;;;;;5081103;28;20223;-59
2021/06/18 07:25:20;;;;;;;5.83;5.37;;;29.00;1.00;;;;;;5078837;28;20948;-60
2021/06/18 07:27:45;;;;;;;6.10;5.60;;;28.90;1.00;;;;;;5084612;28;20210;-60
2021/06/18 07:30:11;;;;;;;5.37;4.87;;;29.00;1.00;;;;;;5073807;28;20183;-60
2021/06/18 07:32:36;;;;;;;5.80;5.30;;;29.20;1.00;;;;;;5081636;28;20690;-59
2021/06/18 07:35:03;;;;;;;5.83;5.23;;;29.30;1.00;;;;;;5081453;28;20179;-60
2021/06/18 07:37:28;;;;;;;6.43;5.93;;;29.60;1.00;;;;;;5079723;28;20364;-59
2021/06/18 07:39:54;;;;;;;6.83;5.57;;;29.70;1.00;;;;;;5079343;28;20531;-59
2021/06/18 07:42:19;;;;;;;6.23;5.53;;;29.80;1.00;;;;;;5078136;28;20184;-60
2021/06/18 07:44:45;;;;;;;8.50;4.90;;;29.90;1.00;;;;;;5083990;28;20604;-58
2021/06/18 07:47:10;;;;;;;5.63;5.23;;;29.90;1.00;;;;;;5087464;28;20220;-59
2021/06/18 07:49:36;;;;;;;5.93;5.43;;;29.80;1.00;;;;;;5075188;28;20644;-61
2021/06/18 07:52:03;;;;;;;5.20;4.70;;;29.90;1.00;;;;;;5087941;28;20174;-59
2021/06/18 07:54:29;;;;;;;4.90;4.50;;;30.00;1.00;;;;;;5088491;28;20277;-60
2021/06/18 07:56:55;;;;;;;6.27;4.57;;;30.20;1.00;;;;;;5082174;28;20548;-59
2021/06/18 07:59:21;;;;;;;4.90;4.50;;;30.40;1.00;;;;;;5081462;28;21021;-60
2021/06/18 08:01:47;;;;;;;4.27;3.97;;;30.40;1.00;;;;;;5083407;28;20524;-59
2021/06/18 08:04:12;;;;;;;5.10;4.30;;;30.40;1.00;;;;;;5078792;28;20176;-60
2021/06/18 08:06:38;;;;;;;4.53;4.13;;;30.70;1.00;;;;;;5070939;28;20572;-60
2021/06/18 08:09:04;;;;;;;6.00;3.80;;;30.80;1.00;;;;;;5077612;28;20194;-60
2021/06/18 08:11:30;;;;;;;4.90;4.50;;;30.70;1.00;;;;;;5072085;28;20184;-62
2021/06/18 08:13:55;;;;;;;4.43;4.03;;;30.80;1.00;;;;;;5076180;28;20987;-59
2021/06/18 08:16:21;;;;;;;5.03;4.43;;;30.90;1.00;;;;;;5081106;28;20202;-60
2021/06/18 08:18:46;;;;;;;5.77;4.30;;;31.00;1.00;;;;;;5077643;28;20185;-60
2021/06/18 08:21:12;;;;;;;5.50;4.33;;;31.20;1.00;;;;;;5090279;28;20183;-60
2021/06/18 08:23:38;;;;;;;4.43;4.03;;;31.00;1.00;;;;;;5083116;28;20174;-61
2021/06/18 08:26:04;;;;;;;4.90;4.37;;;31.00;1.00;;;;;;5089338;28;20644;-60
2021/06/18 08:28:29;;;;;;;4.73;4.33;;;31.10;1.00;;;;;;5087489;28;20544;-60
2021/06/18 08:30:55;;;;;;;5.63;4.40;;;31.20;1.00;;;;;;5087729;28;20536;-61
2021/06/18 08:33:21;;;;;;;6.13;3.93;;;31.30;1.00;;;;;;5079495;28;20753;-61
2021/06/18 08:35:47;;;;;;;4.20;3.90;;;31.40;1.00;;;;;;5080485;28;20827;-61
2021/06/18 08:38:13;;;;;;;5.03;4.23;;;31.50;1.00;;;;;;5083855;28;20190;-61
2021/06/18 08:40:39;;;;;;;6.50;4.83;;;31.40;1.00;;;;;;5073606;28;20436;-61
2021/06/18 08:43:05;;;;;;;4.67;4.20;;;31.50;1.00;;;;;;5078150;28;20798;-61
2021/06/18 08:45:31;;;;;;;4.27;3.50;;;31.60;1.00;;;;;;5087319;28;20189;-60
2021/06/18 08:47:57;;;;;;;4.87;4.43;;;31.50;1.00;;;;;;5085439;28;20442;-60
2021/06/18 08:50:23;;;;;;;5.00;4.20;;;31.60;1.00;;;;;;5077455;28;20468;-61
2021/06/18 08:52:52;;;;;;;7.23;4.50;;;31.70;1.00;;;;;;5081999;28;20183;-60
2021/06/18 08:55:20;;;;;;;5.80;4.90;;;31.90;1.00;;;;;;5077079;28;20441;-60
2021/06/18 08:57:53;;;;;;;4.73;4.33;;;31.80;1.00;;;;;;5080417;28;20482;-61
2021/06/18 09:00:23;;;;;;;7.93;4.23;;;31.70;1.00;;;;;;5083810;28;20430;-60
2021/06/18 09:02:49;;;;;;;5.57;4.57;;;31.90;1.00;;;;;;5087561;28;20420;-61
2021/06/18 09:05:15;;;;;;;9.60;4.30;;;31.90;1.00;;;;;;5082155;28;20432;-59
2021/06/18 09:07:48;;;;;;;5.07;3.70;;;31.90;1.00;;;;;;5080749;28;20468;-61
2021/06/18 09:10:41;;;;;;;4.97;4.57;;;31.90;1.00;;;;;;5075462;28;20442;-61
2021/06/18 09:13:30;;;;;;;6.50;4.60;;;31.90;1.00;;;;;;5085560;28;20453;-61
2021/06/18 09:15:57;;;;;;;5.07;4.50;;;31.90;1.00;;;;;;5087331;28;20516;-61
2021/06/18 09:18:26;;;;;;;7.80;4.00;;;32.20;1.00;;;;;;5077162;28;20529;-60
2021/06/18 09:21:02;;;;;;;5.57;4.93;;;32.20;1.00;;;;;;5082467;28;20437;-58
2021/06/18 09:23:28;;;;;;;5.17;4.07;;;32.10;1.00;;;;;;5088793;28;20490;-62
2021/06/18 09:26:20;;;;;;;7.40;4.53;;;32.20;1.00;;;;;;5091313;28;20425;-60
2021/06/18 09:29:18;;;;;;;6.37;4.83;;;32.30;1.00;;;;;;5087775;28;20448;-61
2021/06/18 09:31:48;;;;;;;6.63;4.17;;;32.20;1.00;;;;;;5075083;28;20953;-61
2021/06/18 09:34:27;;;;;;;5.43;4.73;;;32.40;1.00;;;;;;5087440;28;20434;-61
2021/06/18 09:37:21;;;;;;;4.90;4.50;;;32.60;1.00;;;;;;5091083;28;21036;-59
2021/06/18 09:40:19;;;;;;;5.80;4.80;;;32.70;1.00;;;;;;5081126;28;20433;-61
2021/06/18 09:42:44;;;;;;;4.87;4.57;;;32.80;1.00;;;;;;5076518;28;20441;-61
2021/06/18 09:45:12;;;;;;;5.10;4.60;;;32.80;1.00;;;;;;5083100;28;20426;-61
2021/06/18 09:47:39;;;;;;;4.40;4.00;;;32.70;1.00;;;;;;5084261;28;20185;-61
2021/06/18 09:50:14;;;;;;;4.93;4.53;;;32.80;1.00;;;;;;5088726;28;20768;-60
2021/06/18 09:52:43;;;;;;;5.07;4.50;;;32.60;1.00;;;;;;5092059;28;20428;-59
2021/06/18 09:55:17;;;;;;;8.73;4.83;;;32.80;1.00;;;;;;5090351;28;20516;-60
2021/06/18 09:57:43;;;;;;;6.00;5.40;;;32.80;1.00;;;;;;5085957;28;20970;-62
2021/06/18 10:00:12;;;;;;;5.00;4.60;;;32.70;1.00;;;;;;5081881;28;20429;-62
2021/06/18 10:02:46;;;;;;;4.50;4.10;;;32.80;1.00;;;;;;5084820;28;20593;-59
2021/06/18 10:05:14;;;;;;;5.50;4.10;;;32.70;1.00;;;;;;5082176;28;20475;-61
2021/06/18 10:07:41;;;;;;;5.97;5.37;;;32.60;1.00;;;;;;5074614;28;20452;-60
2021/06/18 10:10:11;;;;;;;5.00;4.50;;;32.80;1.00;;;;;;5088451;28;20448;-62
2021/06/18 10:12:37;;;;;;;5.00;4.70;;;33.20;1.00;;;;;;5080387;28;20475;-61
2021/06/18 10:15:06;;;;;;;5.00;4.27;;;33.30;1.00;;;;;;5074702;28;20445;-60
2021/06/18 10:17:33;;;;;;;5.20;4.20;;;33.10;1.00;;;;;;5083019;28;20559;-62
2021/06/18 10:20:01;;;;;;;6.33;4.70;;;33.00;1.00;;;;;;5074353;28;20537;-61
2021/06/18 10:22:27;;;;;;;6.60;4.40;;;33.00;1.00;;;;;;5072675;28;20521;-61
2021/06/18 10:24:55;;;;;;;4.97;4.47;;;33.00;1.00;;;;;;5074063;28;20475;-61
2021/06/18 10:27:28;;;;;;;4.50;4.10;;;33.00;1.00;;;;;;5090896;28;20786;-62
2021/06/18 10:29:55;;;;;;;6.10;4.70;;;33.00;1.00;;;;;;5088320;28;20437;-61
2021/06/18 10:32:27;;;;;;;4.90;4.33;;;33.10;1.00;;;;;;5085462;28;20487;-61
2021/06/18 10:34:57;;;;;;;5.50;4.37;;;33.20;1.00;;;;;;5084738;28;20796;-61
2021/06/18 10:37:27;;;;;;;5.10;4.13;;;33.10;1.00;;;;;;5082938;28;20502;-59
2021/06/18 10:40:04;;;;;;;5.40;4.83;;;33.00;1.00;;;;;;5083094;28;20456;-62
2021/06/18 10:42:30;;;;;;;4.13;3.83;;;32.80;1.00;;;;;;5073621;28;20433;-61
2021/06/18 10:44:55;;;;;;;5.27;3.80;;;32.90;1.00;;;;;;5083010;28;20425;-61
2021/06/18 10:47:24;;;;;;;5.17;4.70;;;32.90;1.00;;;;;;5073218;28;20179;-61
2021/06/18 10:49:54;;;;;;;5.17;4.67;;;33.20;1.00;;;;;;5083108;28;20504;-60
2021/06/18 10:52:22;;;;;;;4.97;4.07;;;33.40;1.00;;;;;;5075781;28;20516;-60
2021/06/18 10:54:51;;;;;;;5.60;4.20;;;33.70;1.00;;;;;;5086831;28;21033;-60
2021/06/18 10:57:24;;;;;;;4.83;4.33;;;33.70;1.00;;;;;;5074768;28;21010;-60
2021/06/18 10:59:54;;;;;;;5.40;4.90;;;33.70;1.00;;;;;;5075552;28;20968;-60
2021/06/18 11:02:23;;;;;;;5.50;3.93;;;33.60;1.00;;;;;;5089063;28;20429;-61
2021/06/18 11:04:55;;;;;;;4.70;3.87;;;33.50;1.00;;;;;;5083238;28;20442;-61
2021/06/18 11:07:26;;;;;;;5.10;4.50;;;33.40;1.00;;;;;;5083950;28;20473;-61
2021/06/18 11:10:09;;;;;;;4.40;4.00;;;33.40;1.00;;;;;;5086389;28;20489;-60
2021/06/18 11:12:43;;;;;;;5.67;4.30;;;33.50;1.00;;;;;;5079480;28;20524;-61
2021/06/18 11:15:21;;;;;;;5.10;4.60;;;33.50;1.00;;;;;;5088378;28;20432;-61
2021/06/18 11:17:52;;;;;;;5.70;5.17;;;33.50;1.00;;;;;;5089981;28;20464;-60
2021/06/18 11:20:21;;;;;;;10.43;5.30;;;33.40;1.00;;;;;;5080295;28;20436;-59
2021/06/18 11:23:04;;;;;;;8.53;5.17;;;33.40;1.00;;;;;;5083913;28;20495;-61
2021/06/18 11:25:36;;;;;;;4.73;4.30;;;33.40;1.00;;;;;;5080867;28;22634;-60
2021/06/18 11:28:23;;;;;;;5.80;4.40;;;33.40;1.00;;;;;;5081249;28;20468;-60
2021/06/18 11:30:53;;;;;;;6.63;4.37;;;33.80;1.00;;;;;;5075624;28;20432;-61
2021/06/18 11:33:41;;;;;;;4.87;4.00;;;33.80;1.00;;;;;;5084184;28;20918;-61
2021/06/18 11:36:35;;;;;;;4.80;4.50;;;33.70;1.00;;;;;;5071262;28;20440;-60
2021/06/18 11:39:07;;;;;;;5.07;4.57;;;33.80;1.00;;;;;;5091031;28;20989;-59
2021/06/18 11:41:40;;;;;;;5.53;5.13;;;33.80;1.00;;;;;;5080176;28;20472;-61
2021/06/18 11:44:07;;;;;;;5.27;4.80;;;33.90;1.00;;;;;;5076777;28;20440;-59
2021/06/18 11:46:34;;;;;;;7.60;4.90;;;33.70;1.00;;;;;;5086120;28;20498;-62
2021/06/18 11:49:20;;;;;;;5.13;4.70;;;33.70;1.00;;;;;;5084249;28;20792;-59
2021/06/18 11:51:50;;;;;;;5.07;4.77;;;33.70;1.00;;;;;;5068874;28;20473;-58
2021/06/18 11:54:29;;;;;;;6.60;4.80;;;33.90;1.00;;;;;;5072258;28;20449;-60
2021/06/18 11:57:00;;;;;;;5.80;5.27;;;33.90;1.00;;;;;;5082268;28;20431;-60
2021/06/18 11:59:26;;;;;;;8.07;4.90;;;33.90;1.00;;;;;;5083905;28;20436;-60
2021/06/18 12:01:51;;;;;;;5.83;5.30;;;33.70;1.00;;;;;;5082389;28;20920;-60
2021/06/18 12:04:17;;;;;;;5.90;5.40;;;33.70;1.00;;;;;;5081889;28;20179;-61
2021/06/18 12:06:43;;;;;;;5.83;4.70;;;33.80;1.00;;;;;;5081990;28;20187;-59
2021/06/18 12:09:16;;;;;;;10.40;5.83;;;33.60;1.00;;;;;;5072403;28;20262;-60
2021/06/18 12:12:00;;;;;;;6.90;4.90;;;33.60;1.00;;;;;;5080166;28;20445;-59
2021/06/18 12:14:35;;;;;;;6.00;5.20;;;33.70;1.00;;;;;;5068431;28;20943;-60
2021/06/18 12:17:01;;;;;;;5.50;5.00;;;33.70;1.00;;;;;;5071717;28;20500;-59
2021/06/18 12:19:46;;;;;;;5.90;5.40;;;33.60;1.00;;;;;;5069997;28;20897;-61
2021/06/18 12:22:18;;;;;;;6.80;4.67;;;33.40;1.00;;;;;;5074233;28;20202;-61
2021/06/18 12:24:46;;;;;;;7.30;4.70;;;33.40;1.00;;;;;;5070249;28;20433;-60
2021/06/18 12:27:28;;;;;;;4.77;4.30;;;33.50;1.00;;;;;;5084498;28;20473;-61
2021/06/18 12:29:56;;;;;;;5.27;4.50;;;33.60;1.00;;;;;;5077554;28;20438;-60
2021/06/18 12:32:25;;;;;;;9.27;5.73;;;33.60;1.00;;;;;;5078728;28;20437;-60
2021/06/18 12:34:55;;;;;;;5.40;4.90;;;33.60;1.00;;;;;;5072690;28;20433;-60
2021/06/18 12:37:22;;;;;;;5.87;4.90;;;33.50;1.00;;;;;;5088968;28;20460;-59
2021/06/18 12:39:54;;;;;;;5.40;5.00;;;33.70;1.00;;;;;;5081759;28;20440;-61
2021/06/18 12:42:22;;;;;;;6.17;5.70;;;33.60;1.00;;;;;;5076410;28;20439;-62
2021/06/18 12:45:06;;;;;;;5.57;5.07;;;33.60;1.00;;;;;;5087449;28;20436;-61
2021/06/18 12:47:32;;;;;;;5.60;5.00;;;33.60;1.00;;;;;;5081393;28;20444;-60
2021/06/18 12:49:57;;;;;;;12.90;6.40;;;33.70;1.00;;;;;;5080059;28;20446;-60
2021/06/18 12:52:23;;;;;;;6.50;4.33;;;33.70;1.00;;;;;;5084801;28;20223;-59
2021/06/18 12:54:49;;;;;;;4.97;4.57;;;33.70;1.00;;;;;;5082018;28;20185;-60
2021/06/18 12:57:26;;;;;;;5.20;4.70;;;33.70;1.00;;;;;;5080464;28;20214;-61
2021/06/18 13:00:10;;;;;;;7.93;5.30;;;33.80;1.00;;;;;;5074993;28;20171;-59
2021/06/18 13:02:41;;;;;;;5.77;5.20;;;33.70;1.00;;;;;;5092389;28;20433;-61
2021/06/18 13:05:20;;;;;;;5.37;4.87;;;33.60;1.00;;;;;;5088265;28;20937;-61
2021/06/18 13:07:47;;;;;;;5.73;5.13;;;33.40;1.00;;;;;;5068906;28;20437;-59